RJOE(METAR)
03/23 14:00
METAR RJOE 230500Z 35005KT 9999 FEW030 BKN230 13/M01 Q1016 RMK
1CU030 6CI230 A3002=
戻る
トップページへ戻る
IMOC Co,.Ltd.